sensor_id;sensor_type;location;lat;lon;timestamp;P1;durP1;ratioP1;P2;durP2;ratioP2
16330;SDS011;8275;48.206;16.340;2023-04-24T00:00:40;4.55;;;4.15;;
16330;SDS011;8275;48.206;16.340;2023-04-24T00:03:08;4.63;;;4.22;;
16330;SDS011;8275;48.206;16.340;2023-04-24T00:05:37;4.28;;;3.63;;
16330;SDS011;8275;48.206;16.340;2023-04-24T00:08:07;5.72;;;3.97;;
16330;SDS011;8275;48.206;16.340;2023-04-24T00:10:37;5.97;;;4.15;;
16330;SDS011;8275;48.206;16.340;2023-04-24T00:13:06;4.93;;;4.53;;
16330;SDS011;8275;48.206;16.340;2023-04-24T00:15:34;4.47;;;4.07;;
16330;SDS011;8275;48.206;16.340;2023-04-24T00:18:03;4.35;;;3.95;;
16330;SDS011;8275;48.206;16.340;2023-04-24T00:20:32;5.18;;;4.63;;
16330;SDS011;8275;48.206;16.340;2023-04-24T00:23:01;4.53;;;4.13;;
16330;SDS011;8275;48.206;16.340;2023-04-24T00:25:30;5.15;;;4.70;;
16330;SDS011;8275;48.206;16.340;2023-04-24T00:28:00;4.55;;;4.22;;
16330;SDS011;8275;48.206;16.340;2023-04-24T00:30:28;6.13;;;4.50;;
16330;SDS011;8275;48.206;16.340;2023-04-24T00:32:57;4.32;;;3.92;;
16330;SDS011;8275;48.206;16.340;2023-04-24T00:35:25;4.35;;;4.03;;
16330;SDS011;8275;48.206;16.340;2023-04-24T00:37:54;4.40;;;3.88;;
16330;SDS011;8275;48.206;16.340;2023-04-24T00:40:22;4.75;;;4.35;;
16330;SDS011;8275;48.206;16.340;2023-04-24T00:42:51;3.58;;;3.38;;
16330;SDS011;8275;48.206;16.340;2023-04-24T00:45:21;4.82;;;4.43;;
16330;SDS011;8275;48.206;16.340;2023-04-24T00:47:49;4.38;;;3.97;;
16330;SDS011;8275;48.206;16.340;2023-04-24T00:50:20;4.63;;;4.13;;
16330;SDS011;8275;48.206;16.340;2023-04-24T00:52:49;4.68;;;4.22;;
16330;SDS011;8275;48.206;16.340;2023-04-24T00:55:18;5.00;;;4.57;;
16330;SDS011;8275;48.206;16.340;2023-04-24T00:57:46;4.50;;;3.83;;
16330;SDS011;8275;48.206;16.340;2023-04-24T01:00:15;4.18;;;3.88;;
16330;SDS011;8275;48.206;16.340;2023-04-24T01:02:46;5.82;;;4.95;;
16330;SDS011;8275;48.206;16.340;2023-04-24T01:05:16;6.35;;;4.97;;
16330;SDS011;8275;48.206;16.340;2023-04-24T01:07:45;6.07;;;5.15;;
16330;SDS011;8275;48.206;16.340;2023-04-24T01:10:15;4.78;;;4.35;;
16330;SDS011;8275;48.206;16.340;2023-04-24T01:12:44;5.20;;;4.78;;
16330;SDS011;8275;48.206;16.340;2023-04-24T01:15:13;5.32;;;4.90;;
16330;SDS011;8275;48.206;16.340;2023-04-24T01:17:41;4.82;;;4.43;;
16330;SDS011;8275;48.206;16.340;2023-04-24T01:20:11;6.20;;;4.95;;
16330;SDS011;8275;48.206;16.340;2023-04-24T01:22:43;3.88;;;3.58;;
16330;SDS011;8275;48.206;16.340;2023-04-24T01:25:11;4.32;;;3.95;;
16330;SDS011;8275;48.206;16.340;2023-04-24T01:27:40;5.75;;;5.10;;
16330;SDS011;8275;48.206;16.340;2023-04-24T01:30:09;6.55;;;5.90;;
16330;SDS011;8275;48.206;16.340;2023-04-24T01:32:39;4.70;;;4.25;;
16330;SDS011;8275;48.206;16.340;2023-04-24T01:35:10;5.72;;;5.32;;
16330;SDS011;8275;48.206;16.340;2023-04-24T01:37:39;5.18;;;4.30;;
16330;SDS011;8275;48.206;16.340;2023-04-24T01:40:09;5.68;;;5.18;;
16330;SDS011;8275;48.206;16.340;2023-04-24T01:42:38;5.90;;;5.15;;
16330;SDS011;8275;48.206;16.340;2023-04-24T01:45:10;5.32;;;4.93;;
16330;SDS011;8275;48.206;16.340;2023-04-24T01:47:40;5.75;;;5.25;;
16330;SDS011;8275;48.206;16.340;2023-04-24T01:50:09;5.50;;;5.05;;
16330;SDS011;8275;48.206;16.340;2023-04-24T01:52:37;5.32;;;4.82;;
16330;SDS011;8275;48.206;16.340;2023-04-24T01:55:06;6.53;;;5.93;;
16330;SDS011;8275;48.206;16.340;2023-04-24T01:57:37;5.30;;;4.90;;
16330;SDS011;8275;48.206;16.340;2023-04-24T02:00:07;5.53;;;5.10;;
16330;SDS011;8275;48.206;16.340;2023-04-24T02:02:37;6.50;;;4.78;;
16330;SDS011;8275;48.206;16.340;2023-04-24T02:05:10;4.53;;;4.13;;
16330;SDS011;8275;48.206;16.340;2023-04-24T02:07:38;7.57;;;4.47;;
16330;SDS011;8275;48.206;16.340;2023-04-24T02:10:09;4.85;;;4.45;;
16330;SDS011;8275;48.206;16.340;2023-04-24T02:12:38;4.13;;;3.83;;
16330;SDS011;8275;48.206;16.340;2023-04-24T02:15:07;4.38;;;3.97;;
16330;SDS011;8275;48.206;16.340;2023-04-24T02:17:36;4.57;;;4.18;;
16330;SDS011;8275;48.206;16.340;2023-04-24T02:20:05;4.68;;;4.25;;
16330;SDS011;8275;48.206;16.340;2023-04-24T02:22:35;4.32;;;3.92;;
16330;SDS011;8275;48.206;16.340;2023-04-24T02:25:03;3.40;;;3.10;;
16330;SDS011;8275;48.206;16.340;2023-04-24T02:27:35;3.22;;;3.00;;
16330;SDS011;8275;48.206;16.340;2023-04-24T02:30:04;4.20;;;3.10;;
16330;SDS011;8275;48.206;16.340;2023-04-24T02:32:34;2.70;;;2.50;;
16330;SDS011;8275;48.206;16.340;2023-04-24T02:35:03;3.55;;;3.25;;
16330;SDS011;8275;48.206;16.340;2023-04-24T02:37:33;5.82;;;3.42;;
16330;SDS011;8275;48.206;16.340;2023-04-24T02:40:01;4.72;;;3.22;;
16330;SDS011;8275;48.206;16.340;2023-04-24T02:42:32;3.42;;;2.97;;
16330;SDS011;8275;48.206;16.340;2023-04-24T02:45:02;4.80;;;3.08;;
16330;SDS011;8275;48.206;16.340;2023-04-24T02:47:31;3.38;;;3.08;;
16330;SDS011;8275;48.206;16.340;2023-04-24T02:50:00;2.60;;;2.40;;
16330;SDS011;8275;48.206;16.340;2023-04-24T02:52:29;3.78;;;3.22;;
16330;SDS011;8275;48.206;16.340;2023-04-24T02:54:57;3.35;;;3.05;;
16330;SDS011;8275;48.206;16.340;2023-04-24T02:57:26;3.45;;;3.10;;
16330;SDS011;8275;48.206;16.340;2023-04-24T02:59:54;4.03;;;2.92;;
16330;SDS011;8275;48.206;16.340;2023-04-24T03:02:24;2.67;;;2.47;;
16330;SDS011;8275;48.206;16.340;2023-04-24T03:04:52;2.80;;;2.60;;
16330;SDS011;8275;48.206;16.340;2023-04-24T03:07:21;3.30;;;3.05;;
16330;SDS011;8275;48.206;16.340;2023-04-24T03:09:50;3.15;;;2.85;;
16330;SDS011;8275;48.206;16.340;2023-04-24T03:12:18;2.90;;;2.70;;
16330;SDS011;8275;48.206;16.340;2023-04-24T03:14:50;3.10;;;2.90;;
16330;SDS011;8275;48.206;16.340;2023-04-24T03:17:18;3.28;;;2.22;;
16330;SDS011;8275;48.206;16.340;2023-04-24T03:19:48;3.28;;;3.03;;
16330;SDS011;8275;48.206;16.340;2023-04-24T03:22:16;2.58;;;2.40;;
16330;SDS011;8275;48.206;16.340;2023-04-24T03:24:45;3.03;;;2.80;;
16330;SDS011;8275;48.206;16.340;2023-04-24T03:27:13;2.58;;;2.38;;
16330;SDS011;8275;48.206;16.340;2023-04-24T03:29:43;3.45;;;3.15;;
16330;SDS011;8275;48.206;16.340;2023-04-24T03:32:11;2.65;;;2.35;;
16330;SDS011;8275;48.206;16.340;2023-04-24T03:34:40;3.78;;;3.10;;
16330;SDS011;8275;48.206;16.340;2023-04-24T03:37:10;3.28;;;2.92;;
16330;SDS011;8275;48.206;16.340;2023-04-24T03:39:38;3.60;;;2.53;;
16330;SDS011;8275;48.206;16.340;2023-04-24T03:42:07;2.22;;;2.13;;
16330;SDS011;8275;48.206;16.340;2023-04-24T03:44:35;3.20;;;2.90;;
16330;SDS011;8275;48.206;16.340;2023-04-24T03:47:04;3.00;;;2.80;;
16330;SDS011;8275;48.206;16.340;2023-04-24T03:49:33;3.28;;;2.60;;
16330;SDS011;8275;48.206;16.340;2023-04-24T03:52:01;3.17;;;2.92;;
16330;SDS011;8275;48.206;16.340;2023-04-24T03:54:31;3.75;;;3.45;;
16330;SDS011;8275;48.206;16.340;2023-04-24T03:56:59;3.00;;;2.80;;
16330;SDS011;8275;48.206;16.340;2023-04-24T03:59:29;3.13;;;2.78;;
16330;SDS011;8275;48.206;16.340;2023-04-24T04:01:57;2.70;;;2.50;;
16330;SDS011;8275;48.206;16.340;2023-04-24T04:04:26;3.95;;;2.88;;
16330;SDS011;8275;48.206;16.340;2023-04-24T04:06:55;3.05;;;2.63;;
16330;SDS011;8275;48.206;16.340;2023-04-24T04:09:27;2.97;;;2.63;;
16330;SDS011;8275;48.206;16.340;2023-04-24T04:11:57;2.25;;;2.15;;
16330;SDS011;8275;48.206;16.340;2023-04-24T04:14:27;2.92;;;2.60;;
16330;SDS011;8275;48.206;16.340;2023-04-24T04:16:55;2.58;;;2.38;;
16330;SDS011;8275;48.206;16.340;2023-04-24T04:19:24;3.33;;;2.58;;
16330;SDS011;8275;48.206;16.340;2023-04-24T04:21:53;2.40;;;2.20;;
16330;SDS011;8275;48.206;16.340;2023-04-24T04:24:22;2.88;;;2.42;;
16330;SDS011;8275;48.206;16.340;2023-04-24T04:26:52;2.67;;;2.20;;
16330;SDS011;8275;48.206;16.340;2023-04-24T04:29:25;2.30;;;2.10;;
16330;SDS011;8275;48.206;16.340;2023-04-24T04:31:54;2.35;;;2.15;;
16330;SDS011;8275;48.206;16.340;2023-04-24T04:34:22;3.83;;;2.10;;
16330;SDS011;8275;48.206;16.340;2023-04-24T04:36:51;2.58;;;2.38;;
16330;SDS011;8275;48.206;16.340;2023-04-24T04:39:19;2.13;;;2.03;;
16330;SDS011;8275;48.206;16.340;2023-04-24T04:41:48;2.70;;;2.50;;
16330;SDS011;8275;48.206;16.340;2023-04-24T04:44:16;2.97;;;1.95;;
16330;SDS011;8275;48.206;16.340;2023-04-24T04:46:46;2.40;;;2.28;;
16330;SDS011;8275;48.206;16.340;2023-04-24T04:49:15;2.67;;;2.47;;
16330;SDS011;8275;48.206;16.340;2023-04-24T04:51:43;2.47;;;2.28;;
16330;SDS011;8275;48.206;16.340;2023-04-24T04:54:12;2.03;;;1.85;;
16330;SDS011;8275;48.206;16.340;2023-04-24T04:56:41;3.38;;;2.47;;
16330;SDS011;8275;48.206;16.340;2023-04-24T04:59:09;2.00;;;1.90;;
16330;SDS011;8275;48.206;16.340;2023-04-24T05:01:38;3.90;;;2.30;;
16330;SDS011;8275;48.206;16.340;2023-04-24T05:04:09;2.08;;;1.85;;
16330;SDS011;8275;48.206;16.340;2023-04-24T05:06:37;3.38;;;2.25;;
16330;SDS011;8275;48.206;16.340;2023-04-24T05:09:06;1.70;;;1.60;;
16330;SDS011;8275;48.206;16.340;2023-04-24T05:11:34;2.53;;;2.20;;
16330;SDS011;8275;48.206;16.340;2023-04-24T05:14:03;3.78;;;2.20;;
16330;SDS011;8275;48.206;16.340;2023-04-24T05:16:31;1.80;;;1.70;;
16330;SDS011;8275;48.206;16.340;2023-04-24T05:19:03;5.50;;;1.90;;
16330;SDS011;8275;48.206;16.340;2023-04-24T05:21:33;2.65;;;2.45;;
16330;SDS011;8275;48.206;16.340;2023-04-24T05:24:01;2.33;;;2.13;;
16330;SDS011;8275;48.206;16.340;2023-04-24T05:26:31;2.58;;;2.38;;
16330;SDS011;8275;48.206;16.340;2023-04-24T05:28:59;2.90;;;2.60;;
16330;SDS011;8275;48.206;16.340;2023-04-24T05:31:27;3.55;;;2.28;;
16330;SDS011;8275;48.206;16.340;2023-04-24T05:33:56;3.45;;;2.13;;
16330;SDS011;8275;48.206;16.340;2023-04-24T05:36:25;1.85;;;1.75;;
16330;SDS011;8275;48.206;16.340;2023-04-24T05:38:55;2.20;;;2.00;;
16330;SDS011;8275;48.206;16.340;2023-04-24T05:41:24;3.17;;;2.50;;
16330;SDS011;8275;48.206;16.340;2023-04-24T05:43:52;2.40;;;2.20;;
16330;SDS011;8275;48.206;16.340;2023-04-24T05:46:21;2.67;;;2.50;;
16330;SDS011;8275;48.206;16.340;2023-04-24T05:48:49;3.50;;;2.40;;
16330;SDS011;8275;48.206;16.340;2023-04-24T05:51:18;3.10;;;2.53;;
16330;SDS011;8275;48.206;16.340;2023-04-24T05:53:46;2.20;;;2.00;;
16330;SDS011;8275;48.206;16.340;2023-04-24T05:56:16;2.22;;;2.08;;
16330;SDS011;8275;48.206;16.340;2023-04-24T05:58:45;2.00;;;1.90;;
16330;SDS011;8275;48.206;16.340;2023-04-24T06:01:14;2.80;;;2.13;;
16330;SDS011;8275;48.206;16.340;2023-04-24T06:03:42;2.35;;;1.92;;
16330;SDS011;8275;48.206;16.340;2023-04-24T06:06:11;1.80;;;1.70;;
16330;SDS011;8275;48.206;16.340;2023-04-24T06:08:40;2.13;;;2.03;;
16330;SDS011;8275;48.206;16.340;2023-04-24T06:11:10;4.18;;;2.45;;
16330;SDS011;8275;48.206;16.340;2023-04-24T06:13:40;2.88;;;2.30;;
16330;SDS011;8275;48.206;16.340;2023-04-24T06:16:08;2.33;;;1.70;;
16330;SDS011;8275;48.206;16.340;2023-04-24T06:18:37;2.70;;;2.03;;
16330;SDS011;8275;48.206;16.340;2023-04-24T06:21:05;4.97;;;2.28;;
16330;SDS011;8275;48.206;16.340;2023-04-24T06:23:34;6.95;;;2.30;;
16330;SDS011;8275;48.206;16.340;2023-04-24T06:26:02;3.05;;;2.08;;
16330;SDS011;8275;48.206;16.340;2023-04-24T06:28:31;3.72;;;2.53;;
16330;SDS011;8275;48.206;16.340;2023-04-24T06:31:01;4.60;;;2.35;;
16330;SDS011;8275;48.206;16.340;2023-04-24T06:33:29;4.22;;;1.65;;
16330;SDS011;8275;48.206;16.340;2023-04-24T06:35:58;2.95;;;2.40;;
16330;SDS011;8275;48.206;16.340;2023-04-24T06:38:26;7.90;;;2.72;;
16330;SDS011;8275;48.206;16.340;2023-04-24T06:40:56;1.98;;;1.75;;
16330;SDS011;8275;48.206;16.340;2023-04-24T06:43:24;4.28;;;2.80;;
16330;SDS011;8275;48.206;16.340;2023-04-24T06:45:52;10.52;;;2.15;;
16330;SDS011;8275;48.206;16.340;2023-04-24T06:48:22;1.77;;;1.67;;
16330;SDS011;8275;48.206;16.340;2023-04-24T06:50:52;2.50;;;2.33;;
16330;SDS011;8275;48.206;16.340;2023-04-24T06:53:20;1.98;;;1.88;;
16330;SDS011;8275;48.206;16.340;2023-04-24T06:55:48;2.42;;;1.77;;
16330;SDS011;8275;48.206;16.340;2023-04-24T06:58:17;2.17;;;1.98;;
16330;SDS011;8275;48.206;16.340;2023-04-24T07:00:45;4.13;;;2.15;;
16330;SDS011;8275;48.206;16.340;2023-04-24T07:03:14;1.88;;;1.60;;
16330;SDS011;8275;48.206;16.340;2023-04-24T07:05:44;1.60;;;1.50;;
16330;SDS011;8275;48.206;16.340;2023-04-24T07:08:12;1.92;;;1.52;;
16330;SDS011;8275;48.206;16.340;2023-04-24T07:10:42;2.38;;;2.17;;
16330;SDS011;8275;48.206;16.340;2023-04-24T07:13:11;2.78;;;1.50;;
16330;SDS011;8275;48.206;16.340;2023-04-24T07:15:39;2.25;;;1.50;;
16330;SDS011;8275;48.206;16.340;2023-04-24T07:18:08;2.47;;;1.63;;
16330;SDS011;8275;48.206;16.340;2023-04-24T07:20:37;3.63;;;1.92;;
16330;SDS011;8275;48.206;16.340;2023-04-24T07:23:07;2.45;;;1.65;;
16330;SDS011;8275;48.206;16.340;2023-04-24T07:25:35;1.70;;;1.60;;
16330;SDS011;8275;48.206;16.340;2023-04-24T07:28:04;6.43;;;2.42;;
16330;SDS011;8275;48.206;16.340;2023-04-24T07:30:32;2.70;;;1.65;;
16330;SDS011;8275;48.206;16.340;2023-04-24T07:33:01;3.03;;;1.90;;
16330;SDS011;8275;48.206;16.340;2023-04-24T07:35:29;9.43;;;2.15;;
16330;SDS011;8275;48.206;16.340;2023-04-24T07:37:58;6.43;;;2.42;;
16330;SDS011;8275;48.206;16.340;2023-04-24T07:40:27;2.58;;;2.00;;
16330;SDS011;8275;48.206;16.340;2023-04-24T07:42:56;1.92;;;1.45;;
16330;SDS011;8275;48.206;16.340;2023-04-24T07:45:24;1.40;;;1.30;;
16330;SDS011;8275;48.206;16.340;2023-04-24T07:47:54;3.90;;;2.10;;
16330;SDS011;8275;48.206;16.340;2023-04-24T07:50:23;2.75;;;1.77;;
16330;SDS011;8275;48.206;16.340;2023-04-24T07:52:51;11.40;;;1.75;;
16330;SDS011;8275;48.206;16.340;2023-04-24T07:55:19;2.10;;;1.40;;
16330;SDS011;8275;48.206;16.340;2023-04-24T07:57:52;2.30;;;2.10;;
16330;SDS011;8275;48.206;16.340;2023-04-24T08:00:20;3.20;;;2.13;;
16330;SDS011;8275;48.206;16.340;2023-04-24T08:02:49;2.75;;;2.45;;
16330;SDS011;8275;48.206;16.340;2023-04-24T08:05:18;2.55;;;2.35;;
16330;SDS011;8275;48.206;16.340;2023-04-24T08:07:46;6.57;;;3.78;;
16330;SDS011;8275;48.206;16.340;2023-04-24T08:10:16;6.30;;;3.20;;
16330;SDS011;8275;48.206;16.340;2023-04-24T08:12:45;3.63;;;2.63;;
16330;SDS011;8275;48.206;16.340;2023-04-24T08:15:15;2.92;;;2.55;;
16330;SDS011;8275;48.206;16.340;2023-04-24T08:17:43;3.42;;;2.67;;
16330;SDS011;8275;48.206;16.340;2023-04-24T08:20:12;7.25;;;3.38;;
16330;SDS011;8275;48.206;16.340;2023-04-24T08:22:41;3.65;;;2.10;;
16330;SDS011;8275;48.206;16.340;2023-04-24T08:25:10;2.03;;;1.80;;
16330;SDS011;8275;48.206;16.340;2023-04-24T08:27:38;2.25;;;2.05;;
16330;SDS011;8275;48.206;16.340;2023-04-24T08:30:07;4.22;;;3.30;;
16330;SDS011;8275;48.206;16.340;2023-04-24T08:32:38;9.65;;;2.20;;
16330;SDS011;8275;48.206;16.340;2023-04-24T08:35:07;3.75;;;1.35;;
16330;SDS011;8275;48.206;16.340;2023-04-24T08:37:36;2.13;;;1.73;;
16330;SDS011;8275;48.206;16.340;2023-04-24T08:40:06;1.35;;;1.25;;
16330;SDS011;8275;48.206;16.340;2023-04-24T08:42:41;2.40;;;1.25;;
16330;SDS011;8275;48.206;16.340;2023-04-24T08:45:11;2.72;;;1.98;;
16330;SDS011;8275;48.206;16.340;2023-04-24T08:47:41;2.88;;;1.30;;
16330;SDS011;8275;48.206;16.340;2023-04-24T08:50:11;8.80;;;2.33;;
16330;SDS011;8275;48.206;16.340;2023-04-24T08:52:42;3.22;;;1.50;;
16330;SDS011;8275;48.206;16.340;2023-04-24T08:55:10;2.03;;;1.70;;
16330;SDS011;8275;48.206;16.340;2023-04-24T08:57:38;2.03;;;1.23;;
16330;SDS011;8275;48.206;16.340;2023-04-24T09:00:07;1.88;;;1.65;;
16330;SDS011;8275;48.206;16.340;2023-04-24T09:02:39;1.35;;;1.20;;
16330;SDS011;8275;48.206;16.340;2023-04-24T09:05:11;2.05;;;1.80;;
16330;SDS011;8275;48.206;16.340;2023-04-24T09:07:41;1.73;;;1.42;;
16330;SDS011;8275;48.206;16.340;2023-04-24T09:10:16;2.80;;;1.23;;
16330;SDS011;8275;48.206;16.340;2023-04-24T09:12:45;0.95;;;0.80;;
16330;SDS011;8275;48.206;16.340;2023-04-24T09:15:14;4.68;;;1.45;;
16330;SDS011;8275;48.206;16.340;2023-04-24T09:17:44;1.42;;;1.23;;
16330;SDS011;8275;48.206;16.340;2023-04-24T09:20:12;9.27;;;1.27;;
16330;SDS011;8275;48.206;16.340;2023-04-24T09:22:41;0.90;;;0.90;;
16330;SDS011;8275;48.206;16.340;2023-04-24T09:25:10;1.25;;;0.93;;
16330;SDS011;8275;48.206;16.340;2023-04-24T09:27:43;0.88;;;0.80;;
16330;SDS011;8275;48.206;16.340;2023-04-24T09:30:13;1.13;;;0.85;;
16330;SDS011;8275;48.206;16.340;2023-04-24T09:32:49;0.95;;;0.80;;
16330;SDS011;8275;48.206;16.340;2023-04-24T09:35:39;1.45;;;1.35;;
16330;SDS011;8275;48.206;16.340;2023-04-24T09:38:10;1.05;;;0.90;;
16330;SDS011;8275;48.206;16.340;2023-04-24T09:40:38;1.08;;;1.00;;
16330;SDS011;8275;48.206;16.340;2023-04-24T09:43:10;2.47;;;0.85;;
16330;SDS011;8275;48.206;16.340;2023-04-24T09:45:39;1.13;;;1.13;;
16330;SDS011;8275;48.206;16.340;2023-04-24T09:48:10;1.92;;;1.30;;
16330;SDS011;8275;48.206;16.340;2023-04-24T09:50:38;1.08;;;1.00;;
16330;SDS011;8275;48.206;16.340;2023-04-24T09:53:06;2.90;;;2.40;;
16330;SDS011;8275;48.206;16.340;2023-04-24T09:55:38;1.38;;;1.27;;
16330;SDS011;8275;48.206;16.340;2023-04-24T09:58:12;2.55;;;1.02;;
16330;SDS011;8275;48.206;16.340;2023-04-24T10:00:41;3.83;;;2.42;;
16330;SDS011;8275;48.206;16.340;2023-04-24T10:03:10;1.65;;;1.45;;
16330;SDS011;8275;48.206;16.340;2023-04-24T10:05:39;3.75;;;1.35;;
16330;SDS011;8275;48.206;16.340;2023-04-24T10:08:10;1.88;;;0.95;;
16330;SDS011;8275;48.206;16.340;2023-04-24T10:10:41;2.50;;;0.98;;
16330;SDS011;8275;48.206;16.340;2023-04-24T10:13:12;1.67;;;1.42;;
16330;SDS011;8275;48.206;16.340;2023-04-24T10:15:42;0.80;;;0.80;;
16330;SDS011;8275;48.206;16.340;2023-04-24T10:18:12;1.35;;;1.02;;
16330;SDS011;8275;48.206;16.340;2023-04-24T10:20:41;4.07;;;1.73;;
16330;SDS011;8275;48.206;16.340;2023-04-24T10:23:09;2.35;;;2.15;;
16330;SDS011;8275;48.206;16.340;2023-04-24T10:25:39;1.50;;;1.20;;
16330;SDS011;8275;48.206;16.340;2023-04-24T10:28:07;1.65;;;1.50;;
16330;SDS011;8275;48.206;16.340;2023-04-24T10:30:37;1.90;;;1.52;;
16330;SDS011;8275;48.206;16.340;2023-04-24T10:33:10;1.25;;;1.25;;
16330;SDS011;8275;48.206;16.340;2023-04-24T10:35:44;1.85;;;1.45;;
16330;SDS011;8275;48.206;16.340;2023-04-24T10:38:16;1.25;;;1.10;;
16330;SDS011;8275;48.206;16.340;2023-04-24T10:40:54;1.67;;;1.27;;
16330;SDS011;8275;48.206;16.340;2023-04-24T10:43:34;1.20;;;1.10;;
16330;SDS011;8275;48.206;16.340;2023-04-24T10:46:03;1.30;;;1.20;;
16330;SDS011;8275;48.206;16.340;2023-04-24T10:48:34;2.00;;;1.80;;
16330;SDS011;8275;48.206;16.340;2023-04-24T10:51:03;0.88;;;0.88;;
16330;SDS011;8275;48.206;16.340;2023-04-24T10:53:31;1.25;;;1.15;;
16330;SDS011;8275;48.206;16.340;2023-04-24T10:56:03;1.52;;;1.20;;
16330;SDS011;8275;48.206;16.340;2023-04-24T10:58:37;2.28;;;1.58;;
16330;SDS011;8275;48.206;16.340;2023-04-24T11:01:23;1.67;;;1.20;;
16330;SDS011;8275;48.206;16.340;2023-04-24T11:03:58;5.82;;;1.58;;
16330;SDS011;8275;48.206;16.340;2023-04-24T11:06:29;1.50;;;1.40;;
16330;SDS011;8275;48.206;16.340;2023-04-24T11:09:02;4.50;;;1.83;;
16330;SDS011;8275;48.206;16.340;2023-04-24T11:11:32;2.78;;;2.03;;
16330;SDS011;8275;48.206;16.340;2023-04-24T11:14:04;1.98;;;1.50;;
16330;SDS011;8275;48.206;16.340;2023-04-24T11:16:38;1.88;;;1.55;;
16330;SDS011;8275;48.206;16.340;2023-04-24T11:19:20;2.17;;;1.23;;
16330;SDS011;8275;48.206;16.340;2023-04-24T11:21:55;2.20;;;1.77;;
16330;SDS011;8275;48.206;16.340;2023-04-24T11:24:29;1.42;;;1.33;;
16330;SDS011;8275;48.206;16.340;2023-04-24T11:27:05;2.60;;;1.48;;
16330;SDS011;8275;48.206;16.340;2023-04-24T11:29:41;2.80;;;1.45;;
16330;SDS011;8275;48.206;16.340;2023-04-24T11:32:15;1.30;;;1.20;;
16330;SDS011;8275;48.206;16.340;2023-04-24T11:34:48;1.30;;;1.20;;
16330;SDS011;8275;48.206;16.340;2023-04-24T11:37:19;0.63;;;0.60;;
16330;SDS011;8275;48.206;16.340;2023-04-24T11:39:54;2.08;;;1.05;;
16330;SDS011;8275;48.206;16.340;2023-04-24T11:42:25;1.27;;;1.17;;
16330;SDS011;8275;48.206;16.340;2023-04-24T11:44:53;1.63;;;1.52;;
16330;SDS011;8275;48.206;16.340;2023-04-24T11:47:29;3.55;;;2.42;;
16330;SDS011;8275;48.206;16.340;2023-04-24T11:50:01;1.85;;;1.75;;
16330;SDS011;8275;48.206;16.340;2023-04-24T11:52:33;2.08;;;1.35;;
16330;SDS011;8275;48.206;16.340;2023-04-24T11:55:06;2.33;;;2.13;;
16330;SDS011;8275;48.206;16.340;2023-04-24T11:57:51;2.45;;;1.70;;
16330;SDS011;8275;48.206;16.340;2023-04-24T12:00:24;1.70;;;1.60;;
16330;SDS011;8275;48.206;16.340;2023-04-24T12:03:03;2.05;;;1.92;;
16330;SDS011;8275;48.206;16.340;2023-04-24T12:05:35;7.28;;;1.67;;
16330;SDS011;8275;48.206;16.340;2023-04-24T12:08:04;2.50;;;1.77;;
16330;SDS011;8275;48.206;16.340;2023-04-24T12:10:33;1.15;;;1.13;;
16330;SDS011;8275;48.206;16.340;2023-04-24T12:13:03;1.65;;;1.52;;
16330;SDS011;8275;48.206;16.340;2023-04-24T12:15:32;3.25;;;1.70;;
16330;SDS011;8275;48.206;16.340;2023-04-24T12:18:00;2.92;;;2.03;;
16330;SDS011;8275;48.206;16.340;2023-04-24T12:20:30;2.50;;;1.67;;
16330;SDS011;8275;48.206;16.340;2023-04-24T12:23:01;3.63;;;1.40;;
16330;SDS011;8275;48.206;16.340;2023-04-24T12:25:30;4.32;;;2.20;;
16330;SDS011;8275;48.206;16.340;2023-04-24T12:28:08;2.72;;;1.88;;
16330;SDS011;8275;48.206;16.340;2023-04-24T12:30:40;1.45;;;1.20;;
16330;SDS011;8275;48.206;16.340;2023-04-24T12:33:11;2.78;;;1.80;;
16330;SDS011;8275;48.206;16.340;2023-04-24T12:35:40;3.08;;;1.90;;
16330;SDS011;8275;48.206;16.340;2023-04-24T12:38:10;2.75;;;1.70;;
16330;SDS011;8275;48.206;16.340;2023-04-24T12:40:41;4.95;;;1.98;;
16330;SDS011;8275;48.206;16.340;2023-04-24T12:43:13;5.60;;;2.08;;
16330;SDS011;8275;48.206;16.340;2023-04-24T12:45:43;2.22;;;1.80;;
16330;SDS011;8275;48.206;16.340;2023-04-24T12:48:13;13.10;;;3.17;;
16330;SDS011;8275;48.206;16.340;2023-04-24T12:50:42;3.72;;;2.05;;
16330;SDS011;8275;48.206;16.340;2023-04-24T12:53:14;3.65;;;1.95;;
16330;SDS011;8275;48.206;16.340;2023-04-24T12:55:43;2.33;;;1.80;;
16330;SDS011;8275;48.206;16.340;2023-04-24T12:58:13;1.73;;;1.58;;
16330;SDS011;8275;48.206;16.340;2023-04-24T13:00:41;3.60;;;1.48;;
16330;SDS011;8275;48.206;16.340;2023-04-24T13:03:12;3.92;;;1.70;;
16330;SDS011;8275;48.206;16.340;2023-04-24T13:05:41;4.88;;;2.97;;
16330;SDS011;8275;48.206;16.340;2023-04-24T13:08:10;1.70;;;1.60;;
16330;SDS011;8275;48.206;16.340;2023-04-24T13:10:41;1.63;;;1.52;;
16330;SDS011;8275;48.206;16.340;2023-04-24T13:13:10;1.80;;;1.70;;
16330;SDS011;8275;48.206;16.340;2023-04-24T13:15:38;10.10;;;2.10;;
16330;SDS011;8275;48.206;16.340;2023-04-24T13:18:07;2.65;;;2.20;;
16330;SDS011;8275;48.206;16.340;2023-04-24T13:20:35;9.18;;;2.53;;
16330;SDS011;8275;48.206;16.340;2023-04-24T13:23:04;3.40;;;2.95;;
16330;SDS011;8275;48.206;16.340;2023-04-24T13:25:34;3.33;;;2.58;;
16330;SDS011;8275;48.206;16.340;2023-04-24T13:28:06;2.60;;;2.40;;
16330;SDS011;8275;48.206;16.340;2023-04-24T13:30:36;2.15;;;1.75;;
16330;SDS011;8275;48.206;16.340;2023-04-24T13:33:05;2.22;;;1.80;;
16330;SDS011;8275;48.206;16.340;2023-04-24T13:35:33;1.77;;;1.67;;
16330;SDS011;8275;48.206;16.340;2023-04-24T13:38:02;1.77;;;1.42;;
16330;SDS011;8275;48.206;16.340;2023-04-24T13:40:32;2.30;;;1.67;;
16330;SDS011;8275;48.206;16.340;2023-04-24T13:43:01;4.70;;;2.20;;
16330;SDS011;8275;48.206;16.340;2023-04-24T13:45:31;1.88;;;1.70;;
16330;SDS011;8275;48.206;16.340;2023-04-24T13:48:00;6.60;;;2.15;;
16330;SDS011;8275;48.206;16.340;2023-04-24T13:50:29;3.72;;;2.42;;
16330;SDS011;8275;48.206;16.340;2023-04-24T13:52:57;7.10;;;3.60;;
16330;SDS011;8275;48.206;16.340;2023-04-24T13:55:28;2.78;;;2.25;;
16330;SDS011;8275;48.206;16.340;2023-04-24T13:57:57;10.35;;;2.03;;
16330;SDS011;8275;48.206;16.340;2023-04-24T14:00:25;3.35;;;2.10;;
16330;SDS011;8275;48.206;16.340;2023-04-24T14:02:55;3.83;;;2.00;;
16330;SDS011;8275;48.206;16.340;2023-04-24T14:05:24;3.80;;;2.03;;
16330;SDS011;8275;48.206;16.340;2023-04-24T14:07:52;2.80;;;2.03;;
16330;SDS011;8275;48.206;16.340;2023-04-24T14:10:21;2.13;;;1.92;;
16330;SDS011;8275;48.206;16.340;2023-04-24T14:12:50;2.10;;;1.95;;
16330;SDS011;8275;48.206;16.340;2023-04-24T14:15:19;3.67;;;2.30;;
16330;SDS011;8275;48.206;16.340;2023-04-24T14:17:47;1.60;;;1.50;;
16330;SDS011;8275;48.206;16.340;2023-04-24T14:20:18;3.65;;;2.20;;
16330;SDS011;8275;48.206;16.340;2023-04-24T14:22:46;2.60;;;2.40;;
16330;SDS011;8275;48.206;16.340;2023-04-24T14:25:15;3.58;;;3.28;;
16330;SDS011;8275;48.206;16.340;2023-04-24T14:27:43;2.05;;;1.85;;
16330;SDS011;8275;48.206;16.340;2023-04-24T14:30:13;2.83;;;2.33;;
16330;SDS011;8275;48.206;16.340;2023-04-24T14:32:42;2.55;;;2.35;;
16330;SDS011;8275;48.206;16.340;2023-04-24T14:35:11;2.67;;;2.47;;
16330;SDS011;8275;48.206;16.340;2023-04-24T14:37:41;2.03;;;1.60;;
16330;SDS011;8275;48.206;16.340;2023-04-24T14:40:10;2.17;;;1.80;;
16330;SDS011;8275;48.206;16.340;2023-04-24T14:42:58;3.65;;;2.55;;
16330;SDS011;8275;48.206;16.340;2023-04-24T14:45:27;1.95;;;1.75;;
16330;SDS011;8275;48.206;16.340;2023-04-24T14:47:56;1.27;;;1.20;;
16330;SDS011;8275;48.206;16.340;2023-04-24T14:50:25;4.70;;;2.10;;
16330;SDS011;8275;48.206;16.340;2023-04-24T14:52:58;2.08;;;1.80;;
16330;SDS011;8275;48.206;16.340;2023-04-24T14:55:28;2.17;;;1.83;;
16330;SDS011;8275;48.206;16.340;2023-04-24T14:57:56;2.42;;;2.22;;
16330;SDS011;8275;48.206;16.340;2023-04-24T15:00:25;2.42;;;2.22;;
16330;SDS011;8275;48.206;16.340;2023-04-24T15:02:54;1.42;;;1.33;;